createdAt,value
2023-05-20T00:02:04.904Z,4.32
2023-05-20T00:04:22.096Z,6.80
2023-05-20T00:06:39.554Z,6.15
2023-05-20T00:08:56.543Z,5.78
2023-05-20T00:11:13.827Z,4.22
2023-05-20T00:13:30.933Z,6.47
2023-05-20T00:15:48.329Z,5.22
2023-05-20T00:18:05.767Z,5.40
2023-05-20T00:20:23.133Z,3.33
2023-05-20T00:22:40.492Z,5.60
2023-05-20T00:24:59.532Z,5.03
2023-05-20T00:27:16.838Z,3.35
2023-05-20T00:29:33.865Z,3.30
2023-05-20T00:31:51.676Z,3.25
2023-05-20T00:34:09.144Z,3.63
2023-05-20T00:36:27.122Z,5.85
2023-05-20T00:38:44.862Z,7.75
2023-05-20T00:41:02.384Z,5.50
2023-05-20T00:43:19.390Z,3.83
2023-05-20T00:45:39.876Z,3.00
2023-05-20T00:47:57.379Z,4.35
2023-05-20T00:50:15.124Z,4.45
2023-05-20T00:52:33.171Z,3.80
2023-05-20T00:54:50.933Z,7.75
2023-05-20T00:57:08.340Z,3.47
2023-05-20T00:59:26.666Z,4.10
2023-05-20T01:01:44.018Z,4.95
2023-05-20T01:04:01.516Z,4.07
2023-05-20T01:06:18.437Z,3.08
2023-05-20T01:08:35.699Z,5.68
2023-05-20T01:10:52.648Z,2.42
2023-05-20T01:13:09.632Z,3.42
2023-05-20T01:15:26.600Z,4.30
2023-05-20T01:17:43.602Z,3.70
2023-05-20T01:20:00.878Z,4.38
2023-05-20T01:22:18.185Z,3.33
2023-05-20T01:24:35.833Z,3.40
2023-05-20T01:26:53.189Z,5.82
2023-05-20T01:29:10.496Z,4.85
2023-05-20T01:31:27.476Z,5.35
2023-05-20T01:33:44.859Z,3.42
2023-05-20T01:36:02.142Z,6.20
2023-05-20T01:38:19.540Z,4.75
2023-05-20T01:40:36.550Z,3.80
2023-05-20T01:42:53.862Z,5.50
2023-05-20T01:45:10.800Z,4.47
2023-05-20T01:47:28.141Z,4.13
2023-05-20T01:49:45.517Z,5.10
2023-05-20T01:52:03.790Z,4.95
2023-05-20T01:54:21.093Z,3.85
2023-05-20T01:56:38.380Z,5.45
2023-05-20T01:58:56.972Z,3.22
2023-05-20T02:01:14.423Z,5.40
2023-05-20T02:03:31.685Z,3.05
2023-05-20T02:05:48.782Z,3.83
2023-05-20T02:08:05.891Z,3.20
2023-05-20T02:10:23.253Z,3.65
2023-05-20T02:12:40.500Z,4.07
2023-05-20T02:14:57.562Z,5.60
2023-05-20T02:17:14.844Z,3.95
2023-05-20T02:19:32.246Z,4.10
2023-05-20T02:21:49.671Z,4.18
2023-05-20T02:24:07.044Z,3.25
2023-05-20T02:26:24.001Z,4.07
2023-05-20T02:28:41.267Z,4.85
2023-05-20T02:30:58.985Z,4.00
2023-05-20T02:33:16.348Z,3.28
2023-05-20T02:35:33.808Z,4.43
2023-05-20T02:37:51.366Z,3.08
2023-05-20T02:40:09.742Z,3.15
2023-05-20T02:42:26.734Z,4.70
2023-05-20T02:44:43.926Z,5.35
2023-05-20T02:47:01.156Z,3.72
2023-05-20T02:49:18.072Z,4.45
2023-05-20T02:51:35.395Z,3.85
2023-05-20T02:53:52.366Z,4.20
2023-05-20T02:56:10.639Z,3.15
2023-05-20T02:58:27.904Z,4.10
2023-05-20T03:00:44.854Z,6.35
2023-05-20T03:03:02.699Z,5.00
2023-05-20T03:05:19.842Z,4.80
2023-05-20T03:07:37.566Z,3.40
2023-05-20T03:09:54.917Z,3.97
2023-05-20T03:12:12.330Z,6.30
2023-05-20T03:14:29.267Z,3.03
2023-05-20T03:16:46.262Z,7.13
2023-05-20T03:19:03.590Z,3.25
2023-05-20T03:21:21.289Z,3.00
2023-05-20T03:23:38.608Z,3.45
2023-05-20T03:25:55.554Z,4.03
2023-05-20T03:28:12.932Z,3.72
2023-05-20T03:30:30.171Z,5.35
2023-05-20T03:32:47.635Z,4.78
2023-05-20T03:35:05.070Z,2.85
2023-05-20T03:37:22.036Z,3.88
2023-05-20T03:39:39.013Z,4.35
2023-05-20T03:41:56.344Z,3.92
2023-05-20T03:44:13.634Z,5.15
2023-05-20T03:46:30.598Z,6.45
2023-05-20T03:48:47.992Z,5.93
2023-05-20T03:51:05.331Z,6.43
2023-05-20T03:53:22.626Z,9.18
2023-05-20T03:55:39.944Z,6.53
2023-05-20T03:57:57.022Z,7.68
2023-05-20T04:00:14.281Z,9.20
2023-05-20T04:02:31.775Z,8.80
2023-05-20T04:04:49.135Z,9.18
2023-05-20T04:07:06.505Z,11.63
2023-05-20T04:09:23.791Z,7.28
2023-05-20T04:11:41.511Z,9.45
2023-05-20T04:13:58.429Z,7.90
2023-05-20T04:16:15.547Z,6.55
2023-05-20T04:18:32.517Z,6.53
2023-05-20T04:20:49.855Z,5.78
2023-05-20T04:23:07.209Z,7.20
2023-05-20T04:25:24.233Z,5.40
2023-05-20T04:27:41.893Z,8.00
2023-05-20T04:29:59.174Z,4.45
2023-05-20T04:32:16.139Z,5.88
2023-05-20T04:34:33.177Z,5.15
2023-05-20T04:36:51.421Z,4.18
2023-05-20T04:39:08.757Z,5.93
2023-05-20T04:41:26.086Z,5.80
2023-05-20T04:43:43.832Z,7.07
2023-05-20T04:46:01.164Z,6.70
2023-05-20T04:48:18.117Z,6.22
2023-05-20T04:50:35.435Z,4.22
2023-05-20T04:52:52.845Z,7.03
2023-05-20T04:55:10.133Z,5.55
2023-05-20T04:57:27.820Z,5.80
2023-05-20T04:59:44.743Z,4.65
2023-05-20T05:02:02.105Z,4.82
2023-05-20T05:04:19.335Z,5.75
2023-05-20T05:06:36.733Z,4.05
2023-05-20T05:08:56.453Z,4.45
2023-05-20T05:11:13.347Z,4.45
2023-05-20T05:13:31.615Z,5.72
2023-05-20T05:15:48.609Z,5.80
2023-05-20T05:18:05.965Z,6.63
2023-05-20T05:20:23.187Z,5.28
2023-05-20T05:22:40.342Z,6.28
2023-05-20T05:24:58.101Z,8.93
2023-05-20T05:27:15.373Z,8.25
2023-05-20T05:29:32.691Z,5.72
2023-05-20T05:31:50.088Z,4.43
2023-05-20T05:34:08.416Z,4.07
2023-05-20T05:36:26.299Z,5.90
2023-05-20T05:38:43.642Z,5.00
2023-05-20T05:41:00.904Z,6.55
2023-05-20T05:43:18.262Z,4.28
2023-05-20T05:45:36.605Z,5.10
2023-05-20T05:47:54.053Z,5.00
2023-05-20T05:50:11.113Z,5.38
2023-05-20T05:52:28.383Z,4.50
2023-05-20T05:54:45.655Z,4.38
2023-05-20T05:57:04.504Z,4.32
2023-05-20T05:59:22.754Z,4.35
2023-05-20T06:01:40.085Z,6.30
2023-05-20T06:03:57.674Z,6.30
2023-05-20T06:06:15.035Z,6.32
2023-05-20T06:08:32.370Z,7.18
2023-05-20T06:10:49.709Z,5.38
2023-05-20T06:13:06.733Z,6.07
2023-05-20T06:15:23.759Z,5.32
2023-05-20T06:17:40.716Z,9.52
2023-05-20T06:19:58.354Z,6.65
2023-05-20T06:22:15.648Z,4.53
2023-05-20T06:24:32.985Z,5.63
2023-05-20T06:26:50.376Z,4.50
2023-05-20T06:29:07.725Z,6.70
2023-05-20T06:31:25.804Z,5.82
2023-05-20T06:33:43.224Z,6.57
2023-05-20T06:36:01.167Z,5.95
2023-05-20T06:38:19.304Z,6.00
2023-05-20T06:40:36.685Z,5.03
2023-05-20T06:42:53.997Z,8.82
2023-05-20T06:45:11.644Z,5.68
2023-05-20T06:47:29.062Z,7.03
2023-05-20T06:49:47.658Z,5.30
2023-05-20T06:52:05.870Z,5.20
2023-05-20T06:54:22.850Z,4.10
2023-05-20T06:56:41.071Z,5.28
2023-05-20T06:58:58.358Z,6.32
2023-05-20T07:01:17.790Z,6.82
2023-05-20T07:03:35.219Z,6.63
2023-05-20T07:05:52.551Z,8.88
2023-05-20T07:08:09.594Z,6.05
2023-05-20T07:10:26.989Z,6.07
2023-05-20T07:12:44.096Z,7.88
2023-05-20T07:15:01.420Z,7.30
2023-05-20T07:17:18.718Z,6.63
2023-05-20T07:19:35.668Z,5.15
2023-05-20T07:21:52.914Z,5.75
2023-05-20T07:24:10.279Z,7.10
2023-05-20T07:26:27.295Z,7.57
2023-05-20T07:28:44.619Z,6.60
2023-05-20T07:31:01.672Z,6.13
2023-05-20T07:33:19.003Z,7.28
2023-05-20T07:35:36.579Z,6.28
2023-05-20T07:37:53.605Z,7.97
2023-05-20T07:40:10.932Z,7.50
2023-05-20T07:42:28.243Z,8.98
2023-05-20T07:44:45.604Z,9.55
2023-05-20T07:47:02.971Z,7.35
2023-05-20T07:49:20.243Z,6.55
2023-05-20T07:51:37.656Z,7.68
2023-05-20T07:53:54.904Z,8.52
2023-05-20T07:56:12.277Z,8.85
2023-05-20T07:58:29.621Z,5.82
2023-05-20T08:00:46.919Z,7.30
2023-05-20T08:03:04.022Z,8.10
2023-05-20T08:05:21.660Z,7.85
2023-05-20T08:07:38.957Z,7.68
2023-05-20T08:09:56.266Z,6.60
2023-05-20T08:12:13.566Z,7.78
2023-05-20T08:14:30.960Z,5.60
2023-05-20T08:16:48.251Z,7.55
2023-05-20T08:19:05.400Z,6.07
2023-05-20T08:21:22.727Z,8.98
2023-05-20T08:23:40.621Z,8.45
2023-05-20T08:25:58.086Z,6.00
2023-05-20T08:28:15.426Z,6.43
2023-05-20T08:30:32.368Z,7.55
2023-05-20T08:32:49.668Z,8.70
2023-05-20T08:35:06.704Z,6.68
2023-05-20T08:37:24.010Z,7.32
2023-05-20T08:39:41.342Z,17.02
2023-05-20T08:41:58.473Z,9.57
2023-05-20T08:44:15.728Z,6.60
2023-05-20T08:46:33.687Z,6.13
2023-05-20T08:48:51.021Z,7.63
2023-05-20T08:51:08.376Z,8.90
2023-05-20T08:53:25.308Z,6.90
2023-05-20T08:55:42.586Z,8.15
2023-05-20T08:58:00.216Z,7.38
2023-05-20T09:00:17.631Z,8.90
2023-05-20T09:02:34.899Z,6.43
2023-05-20T09:04:52.248Z,8.88
2023-05-20T09:07:09.583Z,7.75
2023-05-20T09:09:26.976Z,7.43
2023-05-20T09:11:44.377Z,6.60
2023-05-20T09:14:01.735Z,6.40
2023-05-20T09:16:19.156Z,6.15
2023-05-20T09:18:36.643Z,7.10
2023-05-20T09:20:53.573Z,8.35
2023-05-20T09:23:10.873Z,9.50
2023-05-20T09:25:27.864Z,7.70
2023-05-20T09:27:45.269Z,8.50
2023-05-20T09:30:02.641Z,6.68
2023-05-20T09:32:19.612Z,8.38
2023-05-20T09:34:36.918Z,6.53
2023-05-20T09:36:54.009Z,9.25
2023-05-20T09:39:10.921Z,9.18
2023-05-20T09:41:28.197Z,7.35
2023-05-20T09:43:45.414Z,7.28
2023-05-20T09:46:02.818Z,8.07
2023-05-20T09:48:20.220Z,7.75
2023-05-20T09:50:37.555Z,6.90
2023-05-20T09:52:55.936Z,8.57
2023-05-20T09:55:13.308Z,7.07
2023-05-20T09:57:30.646Z,7.25
2023-05-20T09:59:48.402Z,6.25
2023-05-20T10:02:05.851Z,6.32
2023-05-20T10:04:22.917Z,7.25
2023-05-20T10:06:40.626Z,7.72
2023-05-20T10:08:58.017Z,7.55
2023-05-20T10:11:15.382Z,11.07
2023-05-20T10:13:33.609Z,8.75
2023-05-20T10:15:50.592Z,8.63
2023-05-20T10:18:07.930Z,7.97
2023-05-20T10:20:25.275Z,8.05
2023-05-20T10:22:42.656Z,7.63
2023-05-20T10:24:59.896Z,7.60
2023-05-20T10:27:16.873Z,6.60
2023-05-20T10:29:33.844Z,7.55
2023-05-20T10:31:51.206Z,9.90
2023-05-20T10:34:08.097Z,6.43
2023-05-20T10:36:25.031Z,9.25
2023-05-20T10:38:42.393Z,8.73
2023-05-20T10:40:59.334Z,7.55
2023-05-20T10:43:16.336Z,7.57
2023-05-20T10:45:33.354Z,8.32
2023-05-20T10:47:50.919Z,9.10
2023-05-20T10:50:08.301Z,7.25
2023-05-20T10:52:25.210Z,6.45
2023-05-20T10:54:42.476Z,6.25
2023-05-20T10:56:59.423Z,7.60
2023-05-20T10:59:16.789Z,7.68
2023-05-20T11:01:33.747Z,8.98
2023-05-20T11:03:50.756Z,6.18
2023-05-20T11:06:07.815Z,8.23
2023-05-20T11:08:29.238Z,6.55
2023-05-20T11:10:46.896Z,6.82
2023-05-20T11:13:04.257Z,6.05
2023-05-20T11:15:22.024Z,6.65
2023-05-20T11:17:38.988Z,8.48
2023-05-20T11:19:56.260Z,8.43
2023-05-20T11:22:13.163Z,6.68
2023-05-20T11:24:30.459Z,7.45
2023-05-20T11:26:48.144Z,6.95
2023-05-20T11:29:05.124Z,10.88
2023-05-20T11:31:23.418Z,6.78
2023-05-20T11:33:40.745Z,6.85
2023-05-20T11:35:58.141Z,9.07
2023-05-20T11:38:15.522Z,6.22
2023-05-20T11:40:39.017Z,9.32
2023-05-20T11:43:03.800Z,7.70
2023-05-20T11:45:20.810Z,9.60
2023-05-20T11:47:38.133Z,6.78
2023-05-20T11:49:55.379Z,6.03
2023-05-20T11:52:12.716Z,6.82
2023-05-20T11:54:30.667Z,8.57
2023-05-20T11:56:47.947Z,5.65
2023-05-20T11:59:05.261Z,6.70
2023-05-20T12:01:23.400Z,5.95
2023-05-20T12:03:41.223Z,5.72
2023-05-20T12:05:58.344Z,8.63
2023-05-20T12:08:15.304Z,7.20
2023-05-20T12:10:32.692Z,8.30
2023-05-20T12:12:49.745Z,6.55
2023-05-20T12:15:07.059Z,8.57
2023-05-20T12:17:25.441Z,7.28
2023-05-20T12:19:42.492Z,9.57
2023-05-20T12:22:00.511Z,8.23
2023-05-20T12:24:17.518Z,9.30
2023-05-20T12:26:34.444Z,6.72
2023-05-20T12:28:51.811Z,7.50
2023-05-20T12:31:09.221Z,9.07
2023-05-20T12:33:26.290Z,8.32
2023-05-20T12:35:43.595Z,7.63
2023-05-20T12:38:00.929Z,8.63
2023-05-20T12:40:17.972Z,7.65
2023-05-20T12:42:35.402Z,9.65
2023-05-20T12:44:52.914Z,8.90
2023-05-20T12:47:10.285Z,7.78
2023-05-20T12:49:27.329Z,8.27
2023-05-20T12:51:44.672Z,6.93
2023-05-20T12:54:01.994Z,10.73
2023-05-20T12:56:19.297Z,8.45
2023-05-20T12:58:36.733Z,9.45
2023-05-20T13:00:53.739Z,7.82
2023-05-20T13:03:11.402Z,8.20
2023-05-20T13:05:29.337Z,13.75
2023-05-20T13:07:46.705Z,11.07
2023-05-20T13:10:04.064Z,12.30
2023-05-20T13:12:22.415Z,11.50
2023-05-20T13:14:39.442Z,14.00
2023-05-20T13:16:57.641Z,10.45
2023-05-20T13:19:15.021Z,10.82
2023-05-20T13:21:32.038Z,9.02
2023-05-20T13:23:49.415Z,7.78
2023-05-20T13:26:06.806Z,9.02
2023-05-20T13:28:23.798Z,9.32
2023-05-20T13:30:41.128Z,8.48
2023-05-20T13:32:58.128Z,9.13
2023-05-20T13:35:15.137Z,7.45
2023-05-20T13:37:32.458Z,7.97
2023-05-20T13:39:49.814Z,11.45
2023-05-20T13:42:06.767Z,10.45
2023-05-20T13:44:23.806Z,9.85
2023-05-20T13:46:41.731Z,10.27
2023-05-20T13:48:59.149Z,8.23
2023-05-20T13:51:16.422Z,9.25
2023-05-20T13:53:34.347Z,8.27
2023-05-20T13:55:51.675Z,11.10
2023-05-20T13:58:09.050Z,10.90
2023-05-20T14:00:26.400Z,8.70
2023-05-20T14:02:43.845Z,8.63
2023-05-20T14:05:01.612Z,8.75
2023-05-20T14:07:19.607Z,8.00
2023-05-20T14:09:37.055Z,8.20
2023-05-20T14:11:54.588Z,8.35
2023-05-20T14:14:11.948Z,15.07
2023-05-20T14:16:29.428Z,8.77
2023-05-20T14:18:47.824Z,11.88
2023-05-20T14:21:05.039Z,8.07
2023-05-20T14:23:22.391Z,9.00
2023-05-20T14:25:39.736Z,10.88
2023-05-20T14:27:57.015Z,11.02
2023-05-20T14:30:14.293Z,8.05
2023-05-20T14:32:32.612Z,8.27
2023-05-20T14:34:49.973Z,13.23
2023-05-20T14:37:06.936Z,9.38
2023-05-20T14:39:24.214Z,10.75
2023-05-20T14:41:43.346Z,10.48
2023-05-20T14:44:00.787Z,9.77
2023-05-20T14:46:17.903Z,9.60
2023-05-20T14:48:35.287Z,8.55
2023-05-20T14:50:53.739Z,9.38
2023-05-20T14:53:11.129Z,8.80
2023-05-20T14:55:28.466Z,10.30
2023-05-20T14:57:45.814Z,9.30
2023-05-20T15:00:03.230Z,9.20
2023-05-20T15:02:20.630Z,10.57
2023-05-20T15:04:37.933Z,16.85
2023-05-20T15:06:55.282Z,13.80
2023-05-20T15:09:12.718Z,10.05
2023-05-20T15:11:29.732Z,12.57
2023-05-20T15:13:49.463Z,9.35
2023-05-20T15:16:06.486Z,11.75
2023-05-20T15:18:23.825Z,9.98
2023-05-20T15:20:40.998Z,8.77
2023-05-20T15:23:00.927Z,8.85
2023-05-20T15:25:18.738Z,10.38
2023-05-20T15:27:36.085Z,8.73
2023-05-20T15:29:53.404Z,10.13
2023-05-20T15:32:10.689Z,10.57
2023-05-20T15:34:28.002Z,10.68
2023-05-20T15:36:45.372Z,9.45
2023-05-20T15:39:02.850Z,12.23
2023-05-20T15:41:20.185Z,11.50
2023-05-20T15:43:37.571Z,9.13
2023-05-20T15:45:54.932Z,9.50
2023-05-20T15:48:12.294Z,10.13
2023-05-20T15:50:29.735Z,10.10
2023-05-20T15:52:47.145Z,9.98
2023-05-20T15:55:04.164Z,9.57
2023-05-20T15:57:21.082Z,10.93
2023-05-20T15:59:38.417Z,10.05
2023-05-20T16:01:55.656Z,11.43
2023-05-20T16:04:12.771Z,9.90
2023-05-20T16:06:29.845Z,12.45
2023-05-20T16:08:48.123Z,11.35
2023-05-20T16:11:05.084Z,14.10
2023-05-20T16:13:22.392Z,10.48
2023-05-20T16:15:39.343Z,13.18
2023-05-20T16:17:56.446Z,12.60
2023-05-20T16:20:14.488Z,14.07
2023-05-20T16:22:32.824Z,12.93
2023-05-20T16:24:51.433Z,11.35
2023-05-20T16:27:08.711Z,9.98
2023-05-20T16:29:27.042Z,10.50
2023-05-20T16:31:44.713Z,12.07
2023-05-20T16:34:01.717Z,9.93
2023-05-20T16:36:18.984Z,10.75
2023-05-20T16:38:36.121Z,10.95
2023-05-20T16:40:53.481Z,13.75
2023-05-20T16:43:11.830Z,13.15
2023-05-20T16:45:29.264Z,12.60
2023-05-20T16:47:46.686Z,10.40
2023-05-20T16:50:04.072Z,12.50
2023-05-20T16:52:21.482Z,10.60
2023-05-20T16:54:38.956Z,11.15
2023-05-20T16:56:57.225Z,13.32
2023-05-20T16:59:14.348Z,10.70
2023-05-20T17:01:32.666Z,10.02
2023-05-20T17:03:50.058Z,10.30
2023-05-20T17:06:07.520Z,10.45
2023-05-20T17:08:24.916Z,11.15
2023-05-20T17:10:42.194Z,9.38
2023-05-20T17:12:59.564Z,10.20
2023-05-20T17:15:16.909Z,11.00
2023-05-20T17:17:34.246Z,9.43
2023-05-20T17:19:51.616Z,10.95
2023-05-20T17:22:08.566Z,12.95
2023-05-20T17:24:25.892Z,9.13
2023-05-20T17:26:43.142Z,10.68
2023-05-20T17:29:00.501Z,11.48
2023-05-20T17:31:17.805Z,9.73
2023-05-20T17:33:35.220Z,10.50
2023-05-20T17:35:52.568Z,9.65
2023-05-20T17:38:09.690Z,9.48
2023-05-20T17:40:26.998Z,9.73
2023-05-20T17:42:44.422Z,11.63
2023-05-20T17:45:01.531Z,9.52
2023-05-20T17:47:18.612Z,11.63
2023-05-20T17:49:36.925Z,11.43
2023-05-20T17:51:54.261Z,11.70
2023-05-20T17:54:11.609Z,10.57
2023-05-20T17:56:28.693Z,11.15
2023-05-20T17:58:45.811Z,12.05
2023-05-20T18:01:03.132Z,10.88
2023-05-20T18:03:21.519Z,11.63
2023-05-20T18:05:38.933Z,10.50
2023-05-20T18:07:56.276Z,12.40
2023-05-20T18:10:13.956Z,11.63
2023-05-20T18:12:31.202Z,13.32
2023-05-20T18:14:48.496Z,11.32
2023-05-20T18:17:05.888Z,11.98
2023-05-20T18:19:23.098Z,10.10
2023-05-20T18:21:40.458Z,14.85
2023-05-20T18:23:57.797Z,14.20
2023-05-20T18:26:15.163Z,12.65
2023-05-20T18:28:32.461Z,12.95
2023-05-20T18:30:49.758Z,9.93
2023-05-20T18:33:07.485Z,11.30
2023-05-20T18:35:25.185Z,11.38
2023-05-20T18:37:42.550Z,10.32
2023-05-20T18:39:59.832Z,13.98
2023-05-20T18:42:18.111Z,12.60
2023-05-20T18:44:35.438Z,9.52
2023-05-20T18:46:53.366Z,12.88
2023-05-20T18:49:10.712Z,10.48
2023-05-20T18:51:28.074Z,10.60
2023-05-20T18:53:45.170Z,13.23
2023-05-20T18:56:02.555Z,12.48
2023-05-20T18:58:20.053Z,10.88
2023-05-20T19:00:37.556Z,12.80
2023-05-20T19:02:54.954Z,12.45
2023-05-20T19:05:12.368Z,11.00
2023-05-20T19:07:29.705Z,12.23
2023-05-20T19:09:47.474Z,12.75
2023-05-20T19:12:05.828Z,13.68
2023-05-20T19:14:23.145Z,12.40
2023-05-20T19:16:40.527Z,12.77
2023-05-20T19:18:57.435Z,15.23
2023-05-20T19:21:14.748Z,13.15
2023-05-20T19:23:31.889Z,13.32
2023-05-20T19:25:49.304Z,15.82
2023-05-20T19:28:06.654Z,14.38
2023-05-20T19:30:23.964Z,12.70
2023-05-20T19:32:41.430Z,11.18
2023-05-20T19:34:59.140Z,11.57
2023-05-20T19:37:16.507Z,11.27
2023-05-20T19:39:33.986Z,13.32
2023-05-20T19:41:51.388Z,13.52
2023-05-20T19:44:08.513Z,11.88
2023-05-20T19:46:26.071Z,11.63
2023-05-20T19:48:43.486Z,12.93
2023-05-20T19:51:01.804Z,12.95
2023-05-20T19:53:19.183Z,12.35
2023-05-20T19:55:37.807Z,17.05
2023-05-20T19:57:56.100Z,13.48
2023-05-20T20:00:13.736Z,12.73
2023-05-20T20:02:31.114Z,13.40
2023-05-20T20:04:48.217Z,14.75
2023-05-20T20:07:07.996Z,13.43
2023-05-20T20:09:27.328Z,14.57
2023-05-20T20:11:45.360Z,14.70
2023-05-20T20:14:02.732Z,13.93
2023-05-20T20:16:19.899Z,12.30
2023-05-20T20:18:37.347Z,13.55
2023-05-20T20:20:55.015Z,13.35
2023-05-20T20:23:12.952Z,17.23
2023-05-20T20:25:29.949Z,12.35
2023-05-20T20:27:48.345Z,15.40
2023-05-20T20:30:05.644Z,15.25
2023-05-20T20:32:24.045Z,15.02
2023-05-20T20:34:41.426Z,14.60
2023-05-20T20:36:58.713Z,15.30
2023-05-20T20:39:15.996Z,15.32
2023-05-20T20:41:33.306Z,12.73
2023-05-20T20:43:50.678Z,13.43
2023-05-20T20:46:08.157Z,15.65
2023-05-20T20:48:26.265Z,15.73
2023-05-20T20:50:43.601Z,16.20
2023-05-20T20:53:00.721Z,16.52
2023-05-20T20:55:17.914Z,15.50
2023-05-20T20:57:35.232Z,17.63
2023-05-20T20:59:53.950Z,14.38
2023-05-20T21:02:11.300Z,14.20
2023-05-20T21:04:29.070Z,14.50
2023-05-20T21:06:46.262Z,15.77
2023-05-20T21:09:04.521Z,14.93
2023-05-20T21:11:21.594Z,16.30
2023-05-20T21:13:39.501Z,16.73
2023-05-20T21:15:56.729Z,14.45
2023-05-20T21:18:14.825Z,16.77
2023-05-20T21:20:32.141Z,14.93
2023-05-20T21:22:49.133Z,15.00
2023-05-20T21:25:06.374Z,13.68
2023-05-20T21:27:24.440Z,15.98
2023-05-20T21:29:41.532Z,16.27
2023-05-20T21:31:59.823Z,14.68
2023-05-20T21:34:16.749Z,16.40
2023-05-20T21:36:34.093Z,20.02
2023-05-20T21:38:52.533Z,13.80
2023-05-20T21:41:09.905Z,18.65
2023-05-20T21:43:26.981Z,15.90
2023-05-20T21:45:43.974Z,16.15
2023-05-20T21:48:01.367Z,16.85
2023-05-20T21:50:18.747Z,16.33
2023-05-20T21:52:37.000Z,16.08
2023-05-20T21:54:54.406Z,16.73
2023-05-20T21:57:11.689Z,16.45
2023-05-20T21:59:28.749Z,17.92
2023-05-20T22:01:46.221Z,15.65
2023-05-20T22:04:04.441Z,16.75
2023-05-20T22:06:22.114Z,17.05
2023-05-20T22:08:39.224Z,15.65
2023-05-20T22:10:56.607Z,17.27
2023-05-20T22:13:14.374Z,16.00
2023-05-20T22:15:31.517Z,16.90
2023-05-20T22:17:49.915Z,18.10
2023-05-20T22:20:06.939Z,17.63
2023-05-20T22:22:24.852Z,17.25
2023-05-20T22:24:42.113Z,17.10
2023-05-20T22:26:59.316Z,17.98
2023-05-20T22:29:16.557Z,16.98
2023-05-20T22:31:33.890Z,16.30
2023-05-20T22:33:51.024Z,16.00
2023-05-20T22:36:08.158Z,17.65
2023-05-20T22:38:25.118Z,18.23
2023-05-20T22:40:42.058Z,18.92
2023-05-20T22:43:00.281Z,17.60
2023-05-20T22:45:17.259Z,18.23
2023-05-20T22:47:34.672Z,17.88
2023-05-20T22:49:52.082Z,17.75
2023-05-20T22:52:11.326Z,17.35
2023-05-20T22:54:28.668Z,19.55
2023-05-20T22:56:46.024Z,17.70
2023-05-20T22:59:02.954Z,18.38
2023-05-20T23:01:20.722Z,19.27
2023-05-20T23:03:38.098Z,18.33
2023-05-20T23:05:56.058Z,20.02
2023-05-20T23:08:13.385Z,17.23
2023-05-20T23:10:30.448Z,19.15
2023-05-20T23:12:47.853Z,20.98
2023-05-20T23:15:05.157Z,21.13
2023-05-20T23:17:22.398Z,21.00
2023-05-20T23:19:39.700Z,20.33
2023-05-20T23:21:56.814Z,18.67
2023-05-20T23:24:13.799Z,21.50
2023-05-20T23:26:30.844Z,18.67
2023-05-20T23:28:48.018Z,19.45
2023-05-20T23:31:05.060Z,21.55
2023-05-20T23:33:25.041Z,20.83
2023-05-20T23:35:43.048Z,17.90
2023-05-20T23:38:00.125Z,19.60
2023-05-20T23:40:17.478Z,20.63
2023-05-20T23:42:34.992Z,18.52
2023-05-20T23:44:51.941Z,19.25
2023-05-20T23:47:09.222Z,18.35
2023-05-20T23:49:26.547Z,20.50
2023-05-20T23:51:43.810Z,22.45
2023-05-20T23:54:01.106Z,42.42
2023-05-20T23:56:18.357Z,36.38
2023-05-20T23:58:35.781Z,31.80
